sensor_id;sensor_type;location;lat;lon;timestamp;P1;durP1;ratioP1;P2;durP2;ratioP2
6292;SDS011;3179;54.350;10.102;2022-08-21T00:01:34;3.23;;;2.07;;
6292;SDS011;3179;54.350;10.102;2022-08-21T00:04:03;4.60;;;2.10;;
6292;SDS011;3179;54.350;10.102;2022-08-21T00:06:30;3.90;;;1.90;;
6292;SDS011;3179;54.350;10.102;2022-08-21T00:08:58;4.30;;;2.67;;
6292;SDS011;3179;54.350;10.102;2022-08-21T00:11:25;4.27;;;2.47;;
6292;SDS011;3179;54.350;10.102;2022-08-21T00:13:53;3.43;;;1.70;;
6292;SDS011;3179;54.350;10.102;2022-08-21T00:16:19;3.60;;;2.00;;
6292;SDS011;3179;54.350;10.102;2022-08-21T00:18:48;5.03;;;1.90;;
6292;SDS011;3179;54.350;10.102;2022-08-21T00:21:15;4.73;;;2.03;;
6292;SDS011;3179;54.350;10.102;2022-08-21T00:23:42;4.17;;;2.00;;
6292;SDS011;3179;54.350;10.102;2022-08-21T00:26:09;4.10;;;2.03;;
6292;SDS011;3179;54.350;10.102;2022-08-21T00:28:36;3.90;;;2.70;;
6292;SDS011;3179;54.350;10.102;2022-08-21T00:31:03;2.20;;;2.00;;
6292;SDS011;3179;54.350;10.102;2022-08-21T00:33:31;2.57;;;1.77;;
6292;SDS011;3179;54.350;10.102;2022-08-21T00:36:00;6.03;;;2.40;;
6292;SDS011;3179;54.350;10.102;2022-08-21T00:38:26;2.80;;;1.90;;
6292;SDS011;3179;54.350;10.102;2022-08-21T00:40:54;4.03;;;2.03;;
6292;SDS011;3179;54.350;10.102;2022-08-21T00:43:25;5.17;;;2.43;;
6292;SDS011;3179;54.350;10.102;2022-08-21T00:45:54;3.90;;;2.00;;
6292;SDS011;3179;54.350;10.102;2022-08-21T00:48:23;3.77;;;2.13;;
6292;SDS011;3179;54.350;10.102;2022-08-21T00:50:52;3.77;;;2.10;;
6292;SDS011;3179;54.350;10.102;2022-08-21T00:53:24;6.57;;;2.70;;
6292;SDS011;3179;54.350;10.102;2022-08-21T00:55:52;3.47;;;1.80;;
6292;SDS011;3179;54.350;10.102;2022-08-21T00:58:20;4.03;;;2.00;;
6292;SDS011;3179;54.350;10.102;2022-08-21T01:00:49;4.33;;;2.10;;
6292;SDS011;3179;54.350;10.102;2022-08-21T01:03:17;2.67;;;1.93;;
6292;SDS011;3179;54.350;10.102;2022-08-21T01:05:47;4.70;;;2.40;;
6292;SDS011;3179;54.350;10.102;2022-08-21T01:08:14;4.67;;;2.17;;
6292;SDS011;3179;54.350;10.102;2022-08-21T01:10:44;2.13;;;1.57;;
6292;SDS011;3179;54.350;10.102;2022-08-21T01:13:12;2.77;;;2.13;;
6292;SDS011;3179;54.350;10.102;2022-08-21T01:15:43;2.87;;;2.00;;
6292;SDS011;3179;54.350;10.102;2022-08-21T01:18:12;3.77;;;1.90;;
6292;SDS011;3179;54.350;10.102;2022-08-21T01:20:41;2.37;;;1.57;;
6292;SDS011;3179;54.350;10.102;2022-08-21T01:23:11;3.57;;;1.90;;
6292;SDS011;3179;54.350;10.102;2022-08-21T01:25:38;3.07;;;1.87;;
6292;SDS011;3179;54.350;10.102;2022-08-21T01:28:06;2.27;;;1.60;;
6292;SDS011;3179;54.350;10.102;2022-08-21T01:30:40;3.60;;;1.60;;
6292;SDS011;3179;54.350;10.102;2022-08-21T01:33:12;4.07;;;1.70;;
6292;SDS011;3179;54.350;10.102;2022-08-21T01:35:38;5.00;;;1.70;;
6292;SDS011;3179;54.350;10.102;2022-08-21T01:38:06;1.90;;;1.80;;
6292;SDS011;3179;54.350;10.102;2022-08-21T01:40:35;4.33;;;1.93;;
6292;SDS011;3179;54.350;10.102;2022-08-21T01:43:02;5.47;;;2.00;;
6292;SDS011;3179;54.350;10.102;2022-08-21T01:45:29;2.90;;;1.90;;
6292;SDS011;3179;54.350;10.102;2022-08-21T01:47:56;1.97;;;1.47;;
6292;SDS011;3179;54.350;10.102;2022-08-21T01:50:23;2.57;;;1.80;;
6292;SDS011;3179;54.350;10.102;2022-08-21T01:52:50;4.10;;;2.00;;
6292;SDS011;3179;54.350;10.102;2022-08-21T01:55:17;1.50;;;1.40;;
6292;SDS011;3179;54.350;10.102;2022-08-21T01:57:46;2.20;;;1.60;;
6292;SDS011;3179;54.350;10.102;2022-08-21T02:00:14;3.50;;;2.00;;
6292;SDS011;3179;54.350;10.102;2022-08-21T02:02:42;7.57;;;2.03;;
6292;SDS011;3179;54.350;10.102;2022-08-21T02:05:10;2.80;;;2.00;;
6292;SDS011;3179;54.350;10.102;2022-08-21T02:07:38;2.17;;;1.60;;
6292;SDS011;3179;54.350;10.102;2022-08-21T02:10:06;3.13;;;2.17;;
6292;SDS011;3179;54.350;10.102;2022-08-21T02:12:34;4.60;;;1.90;;
6292;SDS011;3179;54.350;10.102;2022-08-21T02:15:03;3.53;;;1.63;;
6292;SDS011;3179;54.350;10.102;2022-08-21T02:17:37;2.50;;;1.60;;
6292;SDS011;3179;54.350;10.102;2022-08-21T02:20:08;1.83;;;1.60;;
6292;SDS011;3179;54.350;10.102;2022-08-21T02:22:35;2.20;;;1.63;;
6292;SDS011;3179;54.350;10.102;2022-08-21T02:25:03;2.70;;;1.87;;
6292;SDS011;3179;54.350;10.102;2022-08-21T02:27:36;2.33;;;1.60;;
6292;SDS011;3179;54.350;10.102;2022-08-21T02:30:06;4.30;;;2.40;;
6292;SDS011;3179;54.350;10.102;2022-08-21T02:32:33;2.87;;;1.80;;
6292;SDS011;3179;54.350;10.102;2022-08-21T02:35:00;3.17;;;1.87;;
6292;SDS011;3179;54.350;10.102;2022-08-21T02:37:29;2.47;;;1.43;;
6292;SDS011;3179;54.350;10.102;2022-08-21T02:39:55;4.83;;;2.00;;
6292;SDS011;3179;54.350;10.102;2022-08-21T02:42:22;3.37;;;1.80;;
6292;SDS011;3179;54.350;10.102;2022-08-21T02:44:49;3.00;;;2.30;;
6292;SDS011;3179;54.350;10.102;2022-08-21T02:47:17;3.50;;;1.67;;
6292;SDS011;3179;54.350;10.102;2022-08-21T02:49:44;3.63;;;1.87;;
6292;SDS011;3179;54.350;10.102;2022-08-21T02:52:11;3.93;;;2.03;;
6292;SDS011;3179;54.350;10.102;2022-08-21T02:54:38;2.00;;;1.80;;
6292;SDS011;3179;54.350;10.102;2022-08-21T02:57:05;2.87;;;2.00;;
6292;SDS011;3179;54.350;10.102;2022-08-21T02:59:33;4.70;;;2.30;;
6292;SDS011;3179;54.350;10.102;2022-08-21T03:01:59;5.50;;;2.30;;
6292;SDS011;3179;54.350;10.102;2022-08-21T03:04:28;4.93;;;2.03;;
6292;SDS011;3179;54.350;10.102;2022-08-21T03:06:55;4.60;;;1.90;;
6292;SDS011;3179;54.350;10.102;2022-08-21T03:09:22;5.50;;;2.00;;
6292;SDS011;3179;54.350;10.102;2022-08-21T03:11:49;2.93;;;1.70;;
6292;SDS011;3179;54.350;10.102;2022-08-21T03:14:16;4.30;;;1.93;;
6292;SDS011;3179;54.350;10.102;2022-08-21T03:16:43;4.80;;;2.23;;
6292;SDS011;3179;54.350;10.102;2022-08-21T03:19:10;2.20;;;1.93;;
6292;SDS011;3179;54.350;10.102;2022-08-21T03:21:38;3.27;;;2.00;;
6292;SDS011;3179;54.350;10.102;2022-08-21T03:24:05;2.30;;;1.70;;
6292;SDS011;3179;54.350;10.102;2022-08-21T03:26:34;2.30;;;1.90;;
6292;SDS011;3179;54.350;10.102;2022-08-21T03:29:01;2.80;;;2.10;;
6292;SDS011;3179;54.350;10.102;2022-08-21T03:31:28;9.57;;;2.20;;
6292;SDS011;3179;54.350;10.102;2022-08-21T03:33:56;2.50;;;1.93;;
6292;SDS011;3179;54.350;10.102;2022-08-21T03:36:23;2.47;;;1.80;;
6292;SDS011;3179;54.350;10.102;2022-08-21T03:38:52;2.47;;;1.70;;
6292;SDS011;3179;54.350;10.102;2022-08-21T03:41:19;2.93;;;2.00;;
6292;SDS011;3179;54.350;10.102;2022-08-21T03:43:45;3.80;;;1.80;;
6292;SDS011;3179;54.350;10.102;2022-08-21T03:46:12;1.90;;;1.73;;
6292;SDS011;3179;54.350;10.102;2022-08-21T03:48:39;3.93;;;1.80;;
6292;SDS011;3179;54.350;10.102;2022-08-21T03:51:06;1.53;;;1.30;;
6292;SDS011;3179;54.350;10.102;2022-08-21T03:53:34;5.10;;;2.27;;
6292;SDS011;3179;54.350;10.102;2022-08-21T03:56:03;3.10;;;1.83;;
6292;SDS011;3179;54.350;10.102;2022-08-21T03:58:31;3.50;;;1.80;;
6292;SDS011;3179;54.350;10.102;2022-08-21T04:00:59;4.13;;;2.20;;
6292;SDS011;3179;54.350;10.102;2022-08-21T04:03:27;6.87;;;2.43;;
6292;SDS011;3179;54.350;10.102;2022-08-21T04:05:54;2.77;;;1.77;;
6292;SDS011;3179;54.350;10.102;2022-08-21T04:08:21;2.70;;;1.63;;
6292;SDS011;3179;54.350;10.102;2022-08-21T04:10:49;4.87;;;2.17;;
6292;SDS011;3179;54.350;10.102;2022-08-21T04:13:20;2.13;;;1.73;;
6292;SDS011;3179;54.350;10.102;2022-08-21T04:15:47;2.83;;;1.80;;
6292;SDS011;3179;54.350;10.102;2022-08-21T04:18:14;5.30;;;2.30;;
6292;SDS011;3179;54.350;10.102;2022-08-21T04:20:42;4.33;;;2.00;;
6292;SDS011;3179;54.350;10.102;2022-08-21T04:23:10;4.80;;;2.07;;
6292;SDS011;3179;54.350;10.102;2022-08-21T04:25:37;2.23;;;1.67;;
6292;SDS011;3179;54.350;10.102;2022-08-21T04:28:04;1.80;;;1.70;;
6292;SDS011;3179;54.350;10.102;2022-08-21T04:30:32;3.23;;;2.10;;
6292;SDS011;3179;54.350;10.102;2022-08-21T04:32:59;3.83;;;2.53;;
6292;SDS011;3179;54.350;10.102;2022-08-21T04:35:27;3.93;;;2.00;;
6292;SDS011;3179;54.350;10.102;2022-08-21T04:37:54;2.97;;;2.00;;
6292;SDS011;3179;54.350;10.102;2022-08-21T04:40:21;3.47;;;1.87;;
6292;SDS011;3179;54.350;10.102;2022-08-21T04:42:50;4.40;;;2.20;;
6292;SDS011;3179;54.350;10.102;2022-08-21T04:45:19;2.70;;;2.30;;
6292;SDS011;3179;54.350;10.102;2022-08-21T04:47:50;4.37;;;2.00;;
6292;SDS011;3179;54.350;10.102;2022-08-21T04:50:18;3.23;;;1.80;;
6292;SDS011;3179;54.350;10.102;2022-08-21T04:52:45;4.63;;;2.90;;
6292;SDS011;3179;54.350;10.102;2022-08-21T04:55:13;4.00;;;2.30;;
6292;SDS011;3179;54.350;10.102;2022-08-21T04:57:41;2.77;;;2.40;;
6292;SDS011;3179;54.350;10.102;2022-08-21T05:00:09;3.83;;;2.03;;
6292;SDS011;3179;54.350;10.102;2022-08-21T05:02:38;2.43;;;2.00;;
6292;SDS011;3179;54.350;10.102;2022-08-21T05:05:07;3.43;;;1.93;;
6292;SDS011;3179;54.350;10.102;2022-08-21T05:07:34;5.23;;;2.57;;
6292;SDS011;3179;54.350;10.102;2022-08-21T05:10:02;5.53;;;1.97;;
6292;SDS011;3179;54.350;10.102;2022-08-21T05:12:30;3.73;;;2.00;;
6292;SDS011;3179;54.350;10.102;2022-08-21T05:14:58;6.47;;;2.47;;
6292;SDS011;3179;54.350;10.102;2022-08-21T05:17:25;4.03;;;2.40;;
6292;SDS011;3179;54.350;10.102;2022-08-21T05:19:52;3.53;;;2.07;;
6292;SDS011;3179;54.350;10.102;2022-08-21T05:22:21;4.57;;;2.33;;
6292;SDS011;3179;54.350;10.102;2022-08-21T05:24:49;3.97;;;2.63;;
6292;SDS011;3179;54.350;10.102;2022-08-21T05:27:16;5.80;;;2.60;;
6292;SDS011;3179;54.350;10.102;2022-08-21T05:29:43;5.33;;;2.20;;
6292;SDS011;3179;54.350;10.102;2022-08-21T05:32:10;4.33;;;1.93;;
6292;SDS011;3179;54.350;10.102;2022-08-21T05:34:38;4.47;;;2.17;;
6292;SDS011;3179;54.350;10.102;2022-08-21T05:37:05;5.70;;;2.60;;
6292;SDS011;3179;54.350;10.102;2022-08-21T05:39:33;2.40;;;1.97;;
6292;SDS011;3179;54.350;10.102;2022-08-21T05:42:00;2.13;;;1.80;;
6292;SDS011;3179;54.350;10.102;2022-08-21T05:44:27;4.70;;;2.20;;
6292;SDS011;3179;54.350;10.102;2022-08-21T05:46:53;6.20;;;2.10;;
6292;SDS011;3179;54.350;10.102;2022-08-21T05:49:20;3.97;;;1.93;;
6292;SDS011;3179;54.350;10.102;2022-08-21T05:51:47;2.30;;;1.60;;
6292;SDS011;3179;54.350;10.102;2022-08-21T05:54:14;3.50;;;1.57;;
6292;SDS011;3179;54.350;10.102;2022-08-21T05:56:42;5.93;;;1.80;;
6292;SDS011;3179;54.350;10.102;2022-08-21T05:59:10;2.87;;;2.10;;
6292;SDS011;3179;54.350;10.102;2022-08-21T06:01:38;2.87;;;1.60;;
6292;SDS011;3179;54.350;10.102;2022-08-21T06:04:06;1.80;;;1.63;;
6292;SDS011;3179;54.350;10.102;2022-08-21T06:06:33;3.87;;;1.83;;
6292;SDS011;3179;54.350;10.102;2022-08-21T06:09:00;6.20;;;2.57;;
6292;SDS011;3179;54.350;10.102;2022-08-21T06:11:27;2.70;;;1.53;;
6292;SDS011;3179;54.350;10.102;2022-08-21T06:13:55;4.03;;;1.87;;
6292;SDS011;3179;54.350;10.102;2022-08-21T06:16:21;3.30;;;1.70;;
6292;SDS011;3179;54.350;10.102;2022-08-21T06:18:48;4.33;;;1.50;;
6292;SDS011;3179;54.350;10.102;2022-08-21T06:21:15;2.27;;;1.53;;
6292;SDS011;3179;54.350;10.102;2022-08-21T06:23:43;4.70;;;1.87;;
6292;SDS011;3179;54.350;10.102;2022-08-21T06:26:10;2.77;;;1.33;;
6292;SDS011;3179;54.350;10.102;2022-08-21T06:28:39;3.40;;;1.60;;
6292;SDS011;3179;54.350;10.102;2022-08-21T06:31:12;2.30;;;1.30;;
6292;SDS011;3179;54.350;10.102;2022-08-21T06:33:40;5.33;;;1.27;;
6292;SDS011;3179;54.350;10.102;2022-08-21T06:36:07;3.40;;;1.40;;
6292;SDS011;3179;54.350;10.102;2022-08-21T06:38:35;4.00;;;1.73;;
6292;SDS011;3179;54.350;10.102;2022-08-21T06:41:01;4.03;;;1.53;;
6292;SDS011;3179;54.350;10.102;2022-08-21T06:43:29;3.77;;;1.20;;
6292;SDS011;3179;54.350;10.102;2022-08-21T06:45:56;2.87;;;1.43;;
6292;SDS011;3179;54.350;10.102;2022-08-21T06:48:24;1.83;;;1.50;;
6292;SDS011;3179;54.350;10.102;2022-08-21T06:50:51;1.93;;;1.17;;
6292;SDS011;3179;54.350;10.102;2022-08-21T06:53:19;4.30;;;1.53;;
6292;SDS011;3179;54.350;10.102;2022-08-21T06:55:47;1.30;;;1.10;;
6292;SDS011;3179;54.350;10.102;2022-08-21T06:58:14;4.20;;;1.43;;
6292;SDS011;3179;54.350;10.102;2022-08-21T07:00:42;2.73;;;1.60;;
6292;SDS011;3179;54.350;10.102;2022-08-21T07:03:16;3.20;;;2.10;;
6292;SDS011;3179;54.350;10.102;2022-08-21T07:05:45;3.63;;;1.50;;
6292;SDS011;3179;54.350;10.102;2022-08-21T07:08:12;2.70;;;1.30;;
6292;SDS011;3179;54.350;10.102;2022-08-21T07:10:39;3.83;;;1.50;;
6292;SDS011;3179;54.350;10.102;2022-08-21T07:13:05;2.40;;;1.60;;
6292;SDS011;3179;54.350;10.102;2022-08-21T07:15:32;2.63;;;1.57;;
6292;SDS011;3179;54.350;10.102;2022-08-21T07:17:59;3.00;;;1.40;;
6292;SDS011;3179;54.350;10.102;2022-08-21T07:20:27;3.50;;;1.33;;
6292;SDS011;3179;54.350;10.102;2022-08-21T07:22:56;1.67;;;1.17;;
6292;SDS011;3179;54.350;10.102;2022-08-21T07:25:25;2.03;;;1.30;;
6292;SDS011;3179;54.350;10.102;2022-08-21T07:27:52;2.70;;;1.53;;
6292;SDS011;3179;54.350;10.102;2022-08-21T07:30:19;2.77;;;1.43;;
6292;SDS011;3179;54.350;10.102;2022-08-21T07:32:46;2.30;;;1.17;;
6292;SDS011;3179;54.350;10.102;2022-08-21T07:35:14;2.37;;;1.17;;
6292;SDS011;3179;54.350;10.102;2022-08-21T07:37:41;3.17;;;1.37;;
6292;SDS011;3179;54.350;10.102;2022-08-21T07:40:09;2.17;;;1.20;;
6292;SDS011;3179;54.350;10.102;2022-08-21T07:42:39;3.60;;;1.30;;
6292;SDS011;3179;54.350;10.102;2022-08-21T07:45:07;1.77;;;1.20;;
6292;SDS011;3179;54.350;10.102;2022-08-21T07:47:35;3.00;;;1.60;;
6292;SDS011;3179;54.350;10.102;2022-08-21T07:50:03;1.97;;;1.00;;
6292;SDS011;3179;54.350;10.102;2022-08-21T07:52:31;2.00;;;1.20;;
6292;SDS011;3179;54.350;10.102;2022-08-21T07:54:58;3.57;;;1.50;;
6292;SDS011;3179;54.350;10.102;2022-08-21T07:57:27;1.40;;;0.97;;
6292;SDS011;3179;54.350;10.102;2022-08-21T07:59:54;3.00;;;1.43;;
6292;SDS011;3179;54.350;10.102;2022-08-21T08:02:24;3.47;;;1.40;;
6292;SDS011;3179;54.350;10.102;2022-08-21T08:04:51;2.03;;;1.27;;
6292;SDS011;3179;54.350;10.102;2022-08-21T08:07:18;2.30;;;1.30;;
6292;SDS011;3179;54.350;10.102;2022-08-21T08:09:45;3.30;;;1.73;;
6292;SDS011;3179;54.350;10.102;2022-08-21T08:12:12;4.77;;;1.23;;
6292;SDS011;3179;54.350;10.102;2022-08-21T08:14:40;3.90;;;1.37;;
6292;SDS011;3179;54.350;10.102;2022-08-21T08:17:07;4.70;;;1.50;;
6292;SDS011;3179;54.350;10.102;2022-08-21T08:19:33;5.40;;;1.53;;
6292;SDS011;3179;54.350;10.102;2022-08-21T08:22:00;1.43;;;1.33;;
6292;SDS011;3179;54.350;10.102;2022-08-21T08:24:27;2.23;;;1.40;;
6292;SDS011;3179;54.350;10.102;2022-08-21T08:26:54;2.73;;;1.20;;
6292;SDS011;3179;54.350;10.102;2022-08-21T08:29:22;3.40;;;1.40;;
6292;SDS011;3179;54.350;10.102;2022-08-21T08:31:50;1.77;;;1.10;;
6292;SDS011;3179;54.350;10.102;2022-08-21T08:34:17;1.33;;;1.17;;
6292;SDS011;3179;54.350;10.102;2022-08-21T08:36:44;1.57;;;1.20;;
6292;SDS011;3179;54.350;10.102;2022-08-21T08:39:12;4.20;;;1.40;;
6292;SDS011;3179;54.350;10.102;2022-08-21T08:41:39;2.80;;;1.27;;
6292;SDS011;3179;54.350;10.102;2022-08-21T08:44:07;4.80;;;1.50;;
6292;SDS011;3179;54.350;10.102;2022-08-21T08:46:35;3.43;;;1.50;;
6292;SDS011;3179;54.350;10.102;2022-08-21T08:49:08;2.10;;;1.10;;
6292;SDS011;3179;54.350;10.102;2022-08-21T08:51:40;7.87;;;1.30;;
6292;SDS011;3179;54.350;10.102;2022-08-21T08:54:12;2.33;;;1.00;;
6292;SDS011;3179;54.350;10.102;2022-08-21T08:56:43;6.00;;;1.80;;
6292;SDS011;3179;54.350;10.102;2022-08-21T08:59:13;4.10;;;1.53;;
6292;SDS011;3179;54.350;10.102;2022-08-21T09:01:42;1.93;;;1.17;;
6292;SDS011;3179;54.350;10.102;2022-08-21T09:04:10;5.90;;;1.63;;
6292;SDS011;3179;54.350;10.102;2022-08-21T09:06:44;2.27;;;1.30;;
6292;SDS011;3179;54.350;10.102;2022-08-21T09:09:22;4.17;;;1.43;;
6292;SDS011;3179;54.350;10.102;2022-08-21T09:11:57;2.20;;;1.33;;
6292;SDS011;3179;54.350;10.102;2022-08-21T09:14:31;3.10;;;1.40;;
6292;SDS011;3179;54.350;10.102;2022-08-21T09:17:12;3.10;;;1.53;;
6292;SDS011;3179;54.350;10.102;2022-08-21T09:19:50;5.93;;;1.80;;
6292;SDS011;3179;54.350;10.102;2022-08-21T09:22:28;2.67;;;1.20;;
6292;SDS011;3179;54.350;10.102;2022-08-21T09:25:03;6.50;;;2.03;;
6292;SDS011;3179;54.350;10.102;2022-08-21T09:27:35;2.00;;;1.30;;
6292;SDS011;3179;54.350;10.102;2022-08-21T09:30:02;2.90;;;1.47;;
6292;SDS011;3179;54.350;10.102;2022-08-21T09:32:32;3.93;;;1.40;;
6292;SDS011;3179;54.350;10.102;2022-08-21T09:35:04;5.77;;;1.30;;
6292;SDS011;3179;54.350;10.102;2022-08-21T09:37:34;2.20;;;1.47;;
6292;SDS011;3179;54.350;10.102;2022-08-21T09:40:26;2.23;;;1.00;;
6292;SDS011;3179;54.350;10.102;2022-08-21T09:42:57;7.40;;;1.13;;
6292;SDS011;3179;54.350;10.102;2022-08-21T09:45:25;1.90;;;1.30;;
6292;SDS011;3179;54.350;10.102;2022-08-21T09:47:52;7.33;;;2.00;;
6292;SDS011;3179;54.350;10.102;2022-08-21T09:50:22;8.67;;;1.40;;
6292;SDS011;3179;54.350;10.102;2022-08-21T09:52:53;3.00;;;1.33;;
6292;SDS011;3179;54.350;10.102;2022-08-21T09:55:33;4.43;;;1.70;;
6292;SDS011;3179;54.350;10.102;2022-08-21T09:58:29;2.53;;;1.17;;
6292;SDS011;3179;54.350;10.102;2022-08-21T10:00:59;6.53;;;1.50;;
6292;SDS011;3179;54.350;10.102;2022-08-21T10:03:27;5.53;;;1.77;;
6292;SDS011;3179;54.350;10.102;2022-08-21T10:05:57;3.67;;;1.40;;
6292;SDS011;3179;54.350;10.102;2022-08-21T10:08:27;3.87;;;1.30;;
6292;SDS011;3179;54.350;10.102;2022-08-21T10:10:55;3.40;;;1.90;;
6292;SDS011;3179;54.350;10.102;2022-08-21T10:13:31;6.00;;;1.80;;
6292;SDS011;3179;54.350;10.102;2022-08-21T10:16:15;3.47;;;1.57;;
6292;SDS011;3179;54.350;10.102;2022-08-21T10:18:56;6.03;;;2.00;;
6292;SDS011;3179;54.350;10.102;2022-08-21T10:21:39;3.07;;;1.33;;
6292;SDS011;3179;54.350;10.102;2022-08-21T10:24:13;11.40;;;1.40;;
6292;SDS011;3179;54.350;10.102;2022-08-21T10:27:01;3.30;;;1.50;;
6292;SDS011;3179;54.350;10.102;2022-08-21T10:29:38;4.50;;;1.40;;
6292;SDS011;3179;54.350;10.102;2022-08-21T10:32:13;3.87;;;1.63;;
6292;SDS011;3179;54.350;10.102;2022-08-21T10:34:53;5.53;;;1.67;;
6292;SDS011;3179;54.350;10.102;2022-08-21T10:37:29;2.03;;;1.53;;
6292;SDS011;3179;54.350;10.102;2022-08-21T10:40:08;3.53;;;1.40;;
6292;SDS011;3179;54.350;10.102;2022-08-21T10:42:45;3.07;;;1.60;;
6292;SDS011;3179;54.350;10.102;2022-08-21T10:45:22;5.80;;;1.20;;
6292;SDS011;3179;54.350;10.102;2022-08-21T10:48:03;5.70;;;1.40;;
6292;SDS011;3179;54.350;10.102;2022-08-21T10:50:34;2.47;;;1.20;;
6292;SDS011;3179;54.350;10.102;2022-08-21T10:53:11;5.57;;;1.97;;
6292;SDS011;3179;54.350;10.102;2022-08-21T10:55:56;2.77;;;1.40;;
6292;SDS011;3179;54.350;10.102;2022-08-21T10:58:29;5.23;;;1.47;;
6292;SDS011;3179;54.350;10.102;2022-08-21T11:00:59;2.70;;;1.40;;
6292;SDS011;3179;54.350;10.102;2022-08-21T11:03:32;1.60;;;1.00;;
6292;SDS011;3179;54.350;10.102;2022-08-21T11:06:11;1.73;;;1.10;;
6292;SDS011;3179;54.350;10.102;2022-08-21T11:08:42;1.73;;;1.23;;
6292;SDS011;3179;54.350;10.102;2022-08-21T11:11:12;3.43;;;1.33;;
6292;SDS011;3179;54.350;10.102;2022-08-21T11:13:43;1.67;;;1.37;;
6292;SDS011;3179;54.350;10.102;2022-08-21T11:16:14;2.17;;;1.30;;
6292;SDS011;3179;54.350;10.102;2022-08-21T11:18:47;2.07;;;1.10;;
6292;SDS011;3179;54.350;10.102;2022-08-21T11:21:26;1.23;;;1.10;;
6292;SDS011;3179;54.350;10.102;2022-08-21T11:24:00;1.10;;;0.90;;
6292;SDS011;3179;54.350;10.102;2022-08-21T11:26:36;2.10;;;1.20;;
6292;SDS011;3179;54.350;10.102;2022-08-21T11:29:09;3.20;;;1.03;;
6292;SDS011;3179;54.350;10.102;2022-08-21T11:31:43;1.60;;;1.00;;
6292;SDS011;3179;54.350;10.102;2022-08-21T11:34:21;2.30;;;1.20;;
6292;SDS011;3179;54.350;10.102;2022-08-21T11:37:01;1.77;;;0.83;;
6292;SDS011;3179;54.350;10.102;2022-08-21T11:39:36;1.70;;;1.10;;
6292;SDS011;3179;54.350;10.102;2022-08-21T11:42:12;1.33;;;1.13;;
6292;SDS011;3179;54.350;10.102;2022-08-21T11:44:48;0.90;;;0.90;;
6292;SDS011;3179;54.350;10.102;2022-08-21T11:47:22;1.20;;;1.10;;
6292;SDS011;3179;54.350;10.102;2022-08-21T11:49:59;1.23;;;1.00;;
6292;SDS011;3179;54.350;10.102;2022-08-21T11:52:36;0.70;;;0.70;;
6292;SDS011;3179;54.350;10.102;2022-08-21T11:55:11;0.90;;;0.83;;
6292;SDS011;3179;54.350;10.102;2022-08-21T11:57:44;2.43;;;1.17;;
6292;SDS011;3179;54.350;10.102;2022-08-21T12:00:18;1.07;;;0.87;;
6292;SDS011;3179;54.350;10.102;2022-08-21T12:02:51;1.83;;;0.90;;
6292;SDS011;3179;54.350;10.102;2022-08-21T12:05:24;2.20;;;1.10;;
6292;SDS011;3179;54.350;10.102;2022-08-21T12:07:59;1.03;;;0.93;;
6292;SDS011;3179;54.350;10.102;2022-08-21T12:10:33;1.40;;;1.07;;
6292;SDS011;3179;54.350;10.102;2022-08-21T12:13:09;1.63;;;0.97;;
6292;SDS011;3179;54.350;10.102;2022-08-21T12:15:38;1.13;;;1.10;;
6292;SDS011;3179;54.350;10.102;2022-08-21T12:18:06;0.90;;;0.90;;
6292;SDS011;3179;54.350;10.102;2022-08-21T12:20:56;1.60;;;0.80;;
6292;SDS011;3179;54.350;10.102;2022-08-21T12:23:26;0.80;;;0.80;;
6292;SDS011;3179;54.350;10.102;2022-08-21T12:29:11;0.70;;;0.70;;
6292;SDS011;3179;54.350;10.102;2022-08-21T12:34:46;0.67;;;0.67;;
6292;SDS011;3179;54.350;10.102;2022-08-21T12:37:18;0.97;;;0.93;;
6292;SDS011;3179;54.350;10.102;2022-08-21T12:39:51;1.07;;;0.83;;
6292;SDS011;3179;54.350;10.102;2022-08-21T12:42:23;0.90;;;0.80;;
6292;SDS011;3179;54.350;10.102;2022-08-21T12:44:56;0.90;;;0.83;;
6292;SDS011;3179;54.350;10.102;2022-08-21T12:47:29;2.07;;;0.97;;
6292;SDS011;3179;54.350;10.102;2022-08-21T12:50:01;2.40;;;1.33;;
6292;SDS011;3179;54.350;10.102;2022-08-21T12:52:32;1.80;;;1.00;;
6292;SDS011;3179;54.350;10.102;2022-08-21T12:55:03;1.07;;;0.70;;
6292;SDS011;3179;54.350;10.102;2022-08-21T12:57:31;0.80;;;0.70;;
6292;SDS011;3179;54.350;10.102;2022-08-21T13:00:03;1.10;;;0.97;;
6292;SDS011;3179;54.350;10.102;2022-08-21T13:02:32;0.97;;;0.80;;
6292;SDS011;3179;54.350;10.102;2022-08-21T13:05:02;1.00;;;0.80;;
6292;SDS011;3179;54.350;10.102;2022-08-21T13:07:33;1.70;;;0.70;;
6292;SDS011;3179;54.350;10.102;2022-08-21T13:10:03;2.27;;;0.97;;
6292;SDS011;3179;54.350;10.102;2022-08-21T13:12:37;1.23;;;0.60;;
6292;SDS011;3179;54.350;10.102;2022-08-21T13:15:08;1.07;;;0.87;;
6292;SDS011;3179;54.350;10.102;2022-08-21T13:17:36;0.97;;;0.70;;
6292;SDS011;3179;54.350;10.102;2022-08-21T13:20:07;1.90;;;0.90;;
6292;SDS011;3179;54.350;10.102;2022-08-21T13:22:40;0.70;;;0.70;;
6292;SDS011;3179;54.350;10.102;2022-08-21T13:25:09;0.70;;;0.70;;
6292;SDS011;3179;54.350;10.102;2022-08-21T13:27:39;1.40;;;0.80;;
6292;SDS011;3179;54.350;10.102;2022-08-21T13:30:09;1.90;;;0.80;;
6292;SDS011;3179;54.350;10.102;2022-08-21T13:32:40;1.00;;;0.73;;
6292;SDS011;3179;54.350;10.102;2022-08-21T13:35:18;1.10;;;1.00;;
6292;SDS011;3179;54.350;10.102;2022-08-21T13:37:50;1.70;;;0.97;;
6292;SDS011;3179;54.350;10.102;2022-08-21T13:40:19;2.90;;;0.90;;
6292;SDS011;3179;54.350;10.102;2022-08-21T13:42:52;1.73;;;0.80;;
6292;SDS011;3179;54.350;10.102;2022-08-21T13:45:22;0.80;;;0.60;;
6292;SDS011;3179;54.350;10.102;2022-08-21T13:47:52;3.10;;;1.90;;
6292;SDS011;3179;54.350;10.102;2022-08-21T13:50:20;1.03;;;0.93;;
6292;SDS011;3179;54.350;10.102;2022-08-21T13:52:55;2.13;;;1.17;;
6292;SDS011;3179;54.350;10.102;2022-08-21T13:55:33;1.90;;;1.43;;
6292;SDS011;3179;54.350;10.102;2022-08-21T13:58:03;1.87;;;1.17;;
6292;SDS011;3179;54.350;10.102;2022-08-21T14:00:32;3.50;;;1.27;;
6292;SDS011;3179;54.350;10.102;2022-08-21T14:03:03;1.83;;;1.30;;
6292;SDS011;3179;54.350;10.102;2022-08-21T14:05:34;3.03;;;1.00;;
6292;SDS011;3179;54.350;10.102;2022-08-21T14:08:04;1.10;;;1.00;;
6292;SDS011;3179;54.350;10.102;2022-08-21T14:10:35;1.13;;;0.90;;
6292;SDS011;3179;54.350;10.102;2022-08-21T14:13:14;1.70;;;1.07;;
6292;SDS011;3179;54.350;10.102;2022-08-21T14:15:57;2.70;;;0.90;;
6292;SDS011;3179;54.350;10.102;2022-08-21T14:18:25;1.13;;;1.00;;
6292;SDS011;3179;54.350;10.102;2022-08-21T14:21:03;2.90;;;1.05;;
6292;SDS011;3179;54.350;10.102;2022-08-21T14:23:31;1.60;;;0.98;;
6292;SDS011;3179;54.350;10.102;2022-08-21T14:25:58;1.47;;;0.90;;
6292;SDS011;3179;54.350;10.102;2022-08-21T14:28:30;2.35;;;1.17;;
6292;SDS011;3179;54.350;10.102;2022-08-21T14:30:59;3.30;;;1.20;;
6292;SDS011;3179;54.350;10.102;2022-08-21T14:33:38;1.20;;;0.87;;
6292;SDS011;3179;54.350;10.102;2022-08-21T14:36:05;1.40;;;1.23;;
6292;SDS011;3179;54.350;10.102;2022-08-21T14:38:34;6.40;;;1.20;;
6292;SDS011;3179;54.350;10.102;2022-08-21T14:41:03;2.07;;;1.13;;
6292;SDS011;3179;54.350;10.102;2022-08-21T14:43:36;1.77;;;0.70;;
6292;SDS011;3179;54.350;10.102;2022-08-21T14:46:02;1.93;;;0.97;;
6292;SDS011;3179;54.350;10.102;2022-08-21T14:48:29;2.60;;;1.10;;
6292;SDS011;3179;54.350;10.102;2022-08-21T14:50:56;3.00;;;0.90;;
6292;SDS011;3179;54.350;10.102;2022-08-21T14:53:25;2.90;;;1.50;;
6292;SDS011;3179;54.350;10.102;2022-08-21T14:55:53;1.37;;;1.00;;
6292;SDS011;3179;54.350;10.102;2022-08-21T14:58:32;5.03;;;1.33;;
6292;SDS011;3179;54.350;10.102;2022-08-21T15:01:03;1.97;;;1.27;;
6292;SDS011;3179;54.350;10.102;2022-08-21T15:03:32;2.17;;;1.17;;
6292;SDS011;3179;54.350;10.102;2022-08-21T15:06:01;2.00;;;1.20;;
6292;SDS011;3179;54.350;10.102;2022-08-21T15:08:30;2.37;;;1.30;;
6292;SDS011;3179;54.350;10.102;2022-08-21T15:10:57;1.40;;;1.03;;
6292;SDS011;3179;54.350;10.102;2022-08-21T15:13:24;2.33;;;1.20;;
6292;SDS011;3179;54.350;10.102;2022-08-21T15:15:53;3.77;;;1.40;;
6292;SDS011;3179;54.350;10.102;2022-08-21T15:18:21;2.63;;;1.03;;
6292;SDS011;3179;54.350;10.102;2022-08-21T15:20:49;1.77;;;0.87;;
6292;SDS011;3179;54.350;10.102;2022-08-21T15:23:17;1.90;;;1.07;;